createdAt,value
2023-05-21T00:00:32.202Z,14.00
2023-05-21T00:03:00.000Z,14.00
2023-05-21T00:05:27.838Z,13.90
2023-05-21T00:07:55.505Z,13.90
2023-05-21T00:10:23.079Z,13.90
2023-05-21T00:12:50.887Z,13.90
2023-05-21T00:15:18.658Z,13.80
2023-05-21T00:17:46.267Z,13.80
2023-05-21T00:20:14.063Z,13.70
2023-05-21T00:22:44.716Z,13.80
2023-05-21T00:25:12.620Z,13.70
2023-05-21T00:27:40.530Z,13.70
2023-05-21T00:30:08.465Z,13.60
2023-05-21T00:32:37.071Z,13.60
2023-05-21T00:35:05.124Z,13.60
2023-05-21T00:37:32.797Z,13.60
2023-05-21T00:40:01.787Z,13.60
2023-05-21T00:42:30.754Z,13.50
2023-05-21T00:44:58.584Z,13.50
2023-05-21T00:47:29.619Z,13.50
2023-05-21T00:49:57.512Z,13.50
2023-05-21T00:52:27.280Z,13.50
2023-05-21T00:54:55.574Z,13.50
2023-05-21T00:57:27.042Z,13.40
2023-05-21T00:59:54.752Z,13.40
2023-05-21T01:02:24.271Z,13.40
2023-05-21T01:04:55.303Z,13.40
2023-05-21T01:07:23.356Z,13.40
2023-05-21T01:09:51.386Z,13.30
2023-05-21T01:12:19.813Z,13.30
2023-05-21T01:14:48.857Z,13.30
2023-05-21T01:17:17.030Z,13.20
2023-05-21T01:19:44.797Z,13.20
2023-05-21T01:22:14.346Z,13.20
2023-05-21T01:24:47.582Z,13.10
2023-05-21T01:27:15.156Z,13.10
2023-05-21T01:29:43.254Z,13.10
2023-05-21T01:32:19.243Z,13.10
2023-05-21T01:35:08.306Z,13.10
2023-05-21T01:37:49.192Z,13.00
2023-05-21T01:40:19.684Z,13.00
2023-05-21T01:42:48.137Z,13.00
2023-05-21T01:45:16.746Z,12.90
2023-05-21T01:47:50.393Z,12.90
2023-05-21T01:50:18.899Z,12.90
2023-05-21T01:52:52.643Z,12.80
2023-05-21T01:55:24.678Z,12.80
2023-05-21T01:57:53.993Z,12.80
2023-05-21T02:00:23.746Z,12.80
2023-05-21T02:02:51.887Z,12.70
2023-05-21T02:05:19.752Z,12.70
2023-05-21T02:07:47.992Z,12.70
2023-05-21T02:10:16.182Z,12.60
2023-05-21T02:12:44.048Z,12.60
2023-05-21T02:15:11.825Z,12.60
2023-05-21T02:17:40.629Z,12.60
2023-05-21T02:20:13.558Z,12.50
2023-05-21T02:22:46.124Z,12.50
2023-05-21T02:25:15.971Z,12.50
2023-05-21T02:27:44.556Z,12.50
2023-05-21T02:30:13.496Z,12.50
2023-05-21T02:32:45.042Z,12.40
2023-05-21T02:35:13.627Z,12.40
2023-05-21T02:37:41.419Z,12.40
2023-05-21T02:40:10.107Z,12.40
2023-05-21T02:42:40.173Z,12.40
2023-05-21T02:45:11.818Z,12.30
2023-05-21T02:47:42.058Z,12.30
2023-05-21T02:50:09.973Z,12.30
2023-05-21T02:52:44.799Z,12.30
2023-05-21T02:55:12.339Z,12.30
2023-05-21T02:57:40.223Z,12.30
2023-05-21T03:00:10.570Z,12.20
2023-05-21T03:02:40.914Z,12.20
2023-05-21T03:05:09.469Z,12.20
2023-05-21T03:07:37.083Z,12.20
2023-05-21T03:10:06.529Z,12.20
2023-05-21T03:12:34.075Z,12.10
2023-05-21T03:15:01.759Z,12.10
2023-05-21T03:17:31.127Z,12.10
2023-05-21T03:19:58.668Z,12.10
2023-05-21T03:22:26.204Z,12.00
2023-05-21T03:24:53.809Z,12.10
2023-05-21T03:27:21.696Z,12.10
2023-05-21T03:29:50.088Z,12.00
2023-05-21T03:32:17.914Z,12.00
2023-05-21T03:34:47.846Z,12.00
2023-05-21T03:37:16.760Z,11.90
2023-05-21T03:39:44.251Z,11.90
2023-05-21T03:42:14.008Z,11.90
2023-05-21T03:44:52.330Z,11.90
2023-05-21T03:47:38.782Z,11.90
2023-05-21T03:50:10.828Z,11.80
2023-05-21T03:52:38.469Z,11.80
2023-05-21T03:55:06.901Z,11.80
2023-05-21T03:57:34.801Z,11.80
2023-05-21T04:00:02.609Z,11.80
2023-05-21T04:02:32.715Z,11.80
2023-05-21T04:05:00.552Z,11.80
2023-05-21T04:07:29.985Z,11.70
2023-05-21T04:09:57.453Z,11.70
2023-05-21T04:12:25.180Z,11.70
2023-05-21T04:14:52.983Z,11.70
2023-05-21T04:17:21.154Z,11.70
2023-05-21T04:19:49.150Z,11.70
2023-05-21T04:22:16.830Z,11.70
2023-05-21T04:24:46.540Z,11.70
2023-05-21T04:27:25.955Z,11.70
2023-05-21T04:29:54.791Z,11.70
2023-05-21T04:32:24.418Z,11.70
2023-05-21T04:34:52.106Z,11.70
2023-05-21T04:37:19.858Z,11.70
2023-05-21T04:39:48.077Z,11.70
2023-05-21T04:42:16.242Z,11.70
2023-05-21T04:44:44.553Z,11.70
2023-05-21T04:47:14.960Z,11.70
2023-05-21T04:49:42.883Z,11.70
2023-05-21T04:52:11.093Z,11.70
2023-05-21T04:54:38.937Z,11.70
2023-05-21T04:57:07.430Z,11.70
2023-05-21T04:59:35.533Z,11.70
2023-05-21T05:02:03.579Z,11.70
2023-05-21T05:04:32.009Z,11.70
2023-05-21T05:06:59.682Z,11.70
2023-05-21T05:09:27.274Z,11.70
2023-05-21T05:11:54.823Z,11.80
2023-05-21T05:14:22.536Z,11.80
2023-05-21T05:16:51.249Z,11.80
2023-05-21T05:19:19.000Z,11.80
2023-05-21T05:21:47.830Z,11.80
2023-05-21T05:24:16.209Z,11.90
2023-05-21T05:26:46.117Z,11.90
2023-05-21T05:29:14.010Z,11.90
2023-05-21T05:31:42.491Z,12.00
2023-05-21T05:34:10.014Z,12.00
2023-05-21T05:36:38.820Z,12.00
2023-05-21T05:39:06.518Z,12.00
2023-05-21T05:41:34.066Z,12.10
2023-05-21T05:44:01.899Z,12.20
2023-05-21T05:46:32.986Z,12.20
2023-05-21T05:49:00.502Z,12.30
2023-05-21T05:51:28.085Z,12.30
2023-05-21T05:53:56.232Z,12.30
2023-05-21T05:56:23.778Z,12.40
2023-05-21T05:58:51.314Z,12.40
2023-05-21T06:01:20.634Z,12.40
2023-05-21T06:03:48.207Z,12.50
2023-05-21T06:06:18.454Z,12.50
2023-05-21T06:08:46.311Z,12.50
2023-05-21T06:11:17.104Z,12.60
2023-05-21T06:13:45.758Z,12.60
2023-05-21T06:16:13.628Z,12.70
2023-05-21T06:18:42.288Z,12.70
2023-05-21T06:21:09.997Z,12.70
2023-05-21T06:23:37.844Z,12.80
2023-05-21T06:26:06.372Z,12.80
2023-05-21T06:28:33.995Z,12.90
2023-05-21T06:31:02.129Z,12.90
2023-05-21T06:33:33.304Z,12.90
2023-05-21T06:36:01.431Z,13.00
2023-05-21T06:38:29.020Z,13.00
2023-05-21T06:40:58.358Z,13.10
2023-05-21T06:43:40.062Z,13.10
2023-05-21T06:46:26.365Z,13.20
2023-05-21T06:48:53.982Z,13.20
2023-05-21T06:51:21.436Z,13.20
2023-05-21T06:53:49.426Z,13.30
2023-05-21T06:56:18.641Z,13.40
2023-05-21T06:58:46.878Z,13.40
2023-05-21T07:01:14.440Z,13.50
2023-05-21T07:03:42.480Z,13.50
2023-05-21T07:06:10.029Z,13.60
2023-05-21T07:08:37.776Z,13.70
2023-05-21T07:11:07.720Z,13.70
2023-05-21T07:13:36.544Z,13.80
2023-05-21T07:16:04.426Z,13.90
2023-05-21T07:18:31.966Z,13.90
2023-05-21T07:20:59.529Z,14.00
2023-05-21T07:23:29.056Z,14.10
2023-05-21T07:25:56.656Z,14.20
2023-05-21T07:28:24.282Z,14.20
2023-05-21T07:30:51.863Z,14.30
2023-05-21T07:33:24.049Z,14.40
2023-05-21T07:35:53.028Z,14.40
2023-05-21T07:38:20.691Z,14.50
2023-05-21T07:40:48.579Z,14.60
2023-05-21T07:43:16.429Z,14.70
2023-05-21T07:45:44.886Z,14.70
2023-05-21T07:48:12.820Z,14.80
2023-05-21T07:50:52.738Z,14.90
2023-05-21T07:53:21.240Z,15.00
2023-05-21T07:55:50.154Z,15.00
2023-05-21T07:58:23.379Z,15.10
2023-05-21T08:00:51.127Z,15.20
2023-05-21T08:03:19.226Z,15.30
2023-05-21T08:05:50.949Z,15.40
2023-05-21T08:08:19.579Z,15.50
2023-05-21T08:10:48.025Z,15.60
2023-05-21T08:13:16.794Z,15.80
2023-05-21T08:15:46.642Z,15.80
2023-05-21T08:18:17.752Z,15.90
2023-05-21T08:20:48.332Z,16.00
2023-05-21T08:23:17.431Z,16.10
2023-05-21T08:25:50.014Z,16.20
2023-05-21T08:28:18.163Z,16.30
2023-05-21T08:30:45.632Z,16.40
2023-05-21T08:33:13.956Z,16.50
2023-05-21T08:35:41.628Z,16.60
2023-05-21T08:38:22.666Z,16.70
2023-05-21T08:40:59.939Z,16.80
2023-05-21T08:43:28.271Z,16.90
2023-05-21T08:45:57.297Z,17.00
2023-05-21T08:48:28.291Z,17.10
2023-05-21T08:50:56.191Z,17.20
2023-05-21T08:53:29.406Z,17.40
2023-05-21T08:55:58.356Z,17.50
2023-05-21T08:58:37.206Z,17.60
2023-05-21T09:01:06.240Z,17.80
2023-05-21T09:03:40.519Z,17.90
2023-05-21T09:06:14.281Z,18.00
2023-05-21T09:08:47.729Z,18.10
2023-05-21T09:11:35.789Z,18.30
2023-05-21T09:14:05.778Z,18.40
2023-05-21T09:16:50.217Z,18.50
2023-05-21T09:19:22.291Z,18.60
2023-05-21T09:21:52.546Z,18.70
2023-05-21T09:24:25.336Z,18.80
2023-05-21T09:26:53.525Z,19.00
2023-05-21T09:29:21.175Z,19.10
2023-05-21T09:31:49.798Z,19.20
2023-05-21T09:34:17.803Z,19.30
2023-05-21T09:36:49.254Z,19.40
2023-05-21T09:39:33.474Z,19.40
2023-05-21T09:42:04.223Z,19.50
2023-05-21T09:44:32.824Z,19.60
2023-05-21T09:47:02.558Z,19.60
2023-05-21T09:49:31.257Z,19.70
2023-05-21T09:52:00.928Z,19.70
2023-05-21T09:54:33.811Z,19.80
2023-05-21T09:57:04.356Z,19.80
2023-05-21T09:59:41.169Z,19.90
2023-05-21T10:02:22.412Z,19.90
2023-05-21T10:04:51.551Z,19.90
2023-05-21T10:07:27.023Z,19.90
2023-05-21T10:09:56.788Z,20.00
2023-05-21T10:12:25.275Z,20.00
2023-05-21T10:15:03.113Z,20.00
2023-05-21T10:17:32.538Z,20.00
2023-05-21T10:20:01.728Z,20.10
2023-05-21T10:22:29.935Z,20.10
2023-05-21T10:24:58.872Z,20.10
2023-05-21T10:27:28.836Z,20.10
2023-05-21T10:30:00.076Z,20.20
2023-05-21T10:32:28.246Z,20.20
2023-05-21T10:34:58.659Z,20.20
2023-05-21T10:37:28.725Z,20.20
2023-05-21T10:39:57.120Z,20.20
2023-05-21T10:43:10.211Z,20.30
2023-05-21T10:46:01.492Z,20.30
2023-05-21T10:48:35.047Z,20.40
2023-05-21T10:51:17.742Z,20.40
2023-05-21T10:54:09.330Z,20.40
2023-05-21T10:56:44.880Z,20.40
2023-05-21T10:59:21.945Z,20.40
2023-05-21T11:01:54.174Z,20.40
2023-05-21T11:04:23.860Z,20.50
2023-05-21T11:06:51.575Z,20.50
2023-05-21T11:09:20.021Z,20.50
2023-05-21T11:11:58.090Z,20.60
2023-05-21T11:14:35.069Z,20.60
2023-05-21T11:17:15.571Z,20.70
2023-05-21T11:19:44.486Z,20.80
2023-05-21T11:22:26.842Z,20.80
2023-05-21T11:24:55.828Z,20.90
2023-05-21T11:27:40.630Z,21.00
2023-05-21T11:30:17.637Z,21.00
2023-05-21T11:33:14.096Z,21.20
2023-05-21T11:35:48.035Z,21.20
2023-05-21T11:38:17.435Z,21.30
2023-05-21T11:40:55.479Z,21.40
2023-05-21T11:43:23.205Z,21.50
2023-05-21T11:45:53.153Z,21.60
2023-05-21T11:48:26.698Z,21.80
2023-05-21T11:50:55.629Z,22.00
2023-05-21T11:53:23.133Z,22.10
2023-05-21T11:55:57.242Z,22.20
2023-05-21T11:58:24.892Z,22.30
2023-05-21T12:00:53.030Z,22.40
2023-05-21T12:03:26.734Z,22.40
2023-05-21T12:05:54.722Z,22.50
2023-05-21T12:08:25.372Z,22.50
2023-05-21T12:10:59.291Z,22.50
2023-05-21T12:13:27.143Z,22.50
2023-05-21T12:15:54.759Z,22.50
2023-05-21T12:18:22.716Z,22.50
2023-05-21T12:20:52.357Z,22.50
2023-05-21T12:23:25.989Z,22.50
2023-05-21T12:25:54.004Z,22.50
2023-05-21T12:28:22.368Z,22.50
2023-05-21T12:30:49.996Z,22.50
2023-05-21T12:33:18.402Z,22.50
2023-05-21T12:35:49.845Z,22.50
2023-05-21T12:38:17.622Z,22.60
2023-05-21T12:40:45.725Z,22.50
2023-05-21T12:43:13.751Z,22.60
2023-05-21T12:45:41.470Z,22.60
2023-05-21T12:48:09.166Z,22.60
2023-05-21T12:50:40.595Z,22.60
2023-05-21T12:53:10.206Z,22.70
2023-05-21T12:55:38.701Z,22.70
2023-05-21T12:58:08.841Z,22.70
2023-05-21T13:00:37.521Z,22.70
2023-05-21T13:03:06.731Z,22.70
2023-05-21T13:05:35.463Z,22.70
2023-05-21T13:08:03.403Z,22.80
2023-05-21T13:10:31.040Z,22.80
2023-05-21T13:12:58.716Z,22.80
2023-05-21T13:15:26.335Z,22.80
2023-05-21T13:17:56.570Z,22.80
2023-05-21T13:20:27.291Z,22.80
2023-05-21T13:22:55.370Z,22.80
2023-05-21T13:25:29.939Z,22.80
2023-05-21T13:27:58.254Z,22.70
2023-05-21T13:30:26.114Z,22.70
2023-05-21T13:32:54.029Z,22.80
2023-05-21T13:35:21.802Z,22.70
2023-05-21T13:37:49.736Z,22.80
2023-05-21T13:40:17.587Z,22.80
2023-05-21T13:42:46.840Z,22.80
2023-05-21T13:45:17.312Z,22.80
2023-05-21T13:47:45.980Z,22.80
2023-05-21T13:50:14.196Z,22.70
2023-05-21T13:52:42.232Z,22.70
2023-05-21T13:55:10.790Z,22.70
2023-05-21T13:57:38.781Z,22.70
2023-05-21T14:00:09.237Z,22.70
2023-05-21T14:02:38.097Z,22.70
2023-05-21T14:05:06.246Z,22.70
2023-05-21T14:07:33.974Z,22.70
2023-05-21T14:10:02.822Z,22.70
2023-05-21T14:12:31.017Z,22.70
2023-05-21T14:14:58.578Z,22.60
2023-05-21T14:17:26.229Z,22.60
2023-05-21T14:19:55.986Z,22.60
2023-05-21T14:22:23.742Z,22.60
2023-05-21T14:24:51.285Z,22.50
2023-05-21T14:27:18.907Z,22.50
2023-05-21T14:29:46.408Z,22.50
2023-05-21T14:32:13.965Z,22.50
2023-05-21T14:34:41.932Z,22.50
2023-05-21T14:37:09.385Z,22.50
2023-05-21T14:39:37.240Z,22.40
2023-05-21T14:42:05.363Z,22.40
2023-05-21T14:44:32.917Z,22.40
2023-05-21T14:47:00.451Z,22.40
2023-05-21T14:49:28.296Z,22.40
2023-05-21T14:51:56.568Z,22.40
2023-05-21T14:54:24.304Z,22.40
2023-05-21T14:56:51.961Z,22.40
2023-05-21T14:59:19.751Z,22.40
2023-05-21T15:01:47.328Z,22.40
2023-05-21T15:04:14.984Z,22.40
2023-05-21T15:06:42.672Z,22.30
2023-05-21T15:09:10.177Z,22.30
2023-05-21T15:11:39.809Z,22.30
2023-05-21T15:14:07.477Z,22.30
2023-05-21T15:16:35.090Z,22.20
2023-05-21T15:19:04.300Z,22.20
2023-05-21T15:21:32.099Z,22.20
2023-05-21T15:23:59.692Z,22.10
2023-05-21T15:26:27.393Z,22.10
2023-05-21T15:28:55.100Z,22.10
2023-05-21T15:31:22.684Z,22.00
2023-05-21T15:33:50.288Z,22.00
2023-05-21T15:36:18.014Z,22.00
2023-05-21T15:38:45.582Z,22.00
2023-05-21T15:41:13.082Z,22.00
2023-05-21T15:43:42.147Z,22.00
2023-05-21T15:46:11.141Z,22.00
2023-05-21T15:48:38.769Z,22.00
2023-05-21T15:51:06.454Z,22.00
2023-05-21T15:53:34.012Z,22.00
2023-05-21T15:56:03.245Z,22.00
2023-05-21T15:58:31.244Z,22.00
2023-05-21T16:00:58.874Z,22.00
2023-05-21T16:03:26.616Z,22.00
2023-05-21T16:05:54.172Z,22.00
2023-05-21T16:08:21.903Z,22.00
2023-05-21T16:10:49.344Z,21.90
2023-05-21T16:13:16.781Z,21.90
2023-05-21T16:15:44.755Z,21.90
2023-05-21T16:18:12.558Z,21.80
2023-05-21T16:20:40.128Z,21.80
2023-05-21T16:23:07.748Z,21.80
2023-05-21T16:25:36.730Z,21.80
2023-05-21T16:28:04.872Z,21.70
2023-05-21T16:30:32.352Z,21.70
2023-05-21T16:32:59.919Z,21.60
2023-05-21T16:35:27.576Z,21.50
2023-05-21T16:37:55.083Z,21.50
2023-05-21T16:40:22.682Z,21.50
2023-05-21T16:42:50.920Z,21.40
2023-05-21T16:45:21.624Z,21.30
2023-05-21T16:47:50.558Z,21.30
2023-05-21T16:50:19.443Z,21.20
2023-05-21T16:52:47.001Z,21.20
2023-05-21T16:55:15.231Z,21.10
2023-05-21T16:57:42.775Z,21.00
2023-05-21T17:00:10.968Z,21.00
2023-05-21T17:02:38.673Z,21.00
2023-05-21T17:05:06.733Z,20.90
2023-05-21T17:07:34.274Z,20.90
2023-05-21T17:10:01.969Z,20.80
2023-05-21T17:12:29.576Z,20.70
2023-05-21T17:14:57.156Z,20.70
2023-05-21T17:17:24.803Z,20.60
2023-05-21T17:19:52.415Z,20.60
2023-05-21T17:22:20.028Z,20.50
2023-05-21T17:24:47.653Z,20.50
2023-05-21T17:27:15.140Z,20.40
2023-05-21T17:29:42.772Z,20.30
2023-05-21T17:32:11.082Z,20.30
2023-05-21T17:34:39.231Z,20.30
2023-05-21T17:37:06.732Z,20.20
2023-05-21T17:39:34.293Z,20.20
2023-05-21T17:42:01.799Z,20.20
2023-05-21T17:44:29.333Z,20.10
2023-05-21T17:46:57.561Z,20.10
2023-05-21T17:49:25.944Z,20.00
2023-05-21T17:51:53.530Z,20.00
2023-05-21T17:54:21.427Z,20.00
2023-05-21T17:56:49.044Z,20.00
2023-05-21T17:59:16.796Z,19.90
2023-05-21T18:01:44.358Z,19.90
2023-05-21T18:04:13.248Z,19.80
2023-05-21T18:06:41.950Z,19.80
2023-05-21T18:09:10.659Z,19.70
2023-05-21T18:11:38.321Z,19.70
2023-05-21T18:14:05.846Z,19.60
2023-05-21T18:16:33.511Z,19.60
2023-05-21T18:19:05.989Z,19.60
2023-05-21T18:21:37.202Z,19.50
2023-05-21T18:24:06.395Z,19.50
2023-05-21T18:26:34.117Z,19.50
2023-05-21T18:29:01.615Z,19.40
2023-05-21T18:31:29.166Z,19.40
2023-05-21T18:33:56.951Z,19.40
2023-05-21T18:36:26.598Z,19.30
2023-05-21T18:38:54.245Z,19.40
2023-05-21T18:41:22.449Z,19.30
2023-05-21T18:43:50.025Z,19.30
2023-05-21T18:46:17.661Z,19.20
2023-05-21T18:48:46.348Z,19.20
2023-05-21T18:51:13.889Z,19.20
2023-05-21T18:53:41.324Z,19.20
2023-05-21T18:56:10.269Z,19.20
2023-05-21T18:58:38.677Z,19.20
2023-05-21T19:01:06.926Z,19.10
2023-05-21T19:03:34.359Z,19.10
2023-05-21T19:06:02.030Z,19.10
2023-05-21T19:08:29.799Z,19.10
2023-05-21T19:10:57.317Z,19.10
2023-05-21T19:13:24.811Z,19.00
2023-05-21T19:15:53.125Z,19.00
2023-05-21T19:18:21.603Z,18.90
2023-05-21T19:20:49.220Z,18.90
2023-05-21T19:23:16.745Z,18.90
2023-05-21T19:25:44.436Z,18.80
2023-05-21T19:28:11.999Z,18.80
2023-05-21T19:30:39.785Z,18.80
2023-05-21T19:33:07.783Z,18.70
2023-05-21T19:35:36.111Z,18.70
2023-05-21T19:38:05.480Z,18.60
2023-05-21T19:40:33.541Z,18.60
2023-05-21T19:43:01.411Z,18.50
2023-05-21T19:45:29.384Z,18.50
2023-05-21T19:47:57.363Z,18.40
2023-05-21T19:50:25.079Z,18.40
2023-05-21T19:52:53.482Z,18.30
2023-05-21T19:55:22.760Z,18.30
2023-05-21T19:57:50.425Z,18.20
2023-05-21T20:00:18.922Z,18.20
2023-05-21T20:02:47.843Z,18.10
2023-05-21T20:05:16.219Z,18.10
2023-05-21T20:07:44.743Z,18.00
2023-05-21T20:10:12.176Z,18.00
2023-05-21T20:12:39.667Z,17.90
2023-05-21T20:15:07.674Z,17.70
2023-05-21T20:17:35.943Z,17.80
2023-05-21T20:20:11.231Z,17.70
2023-05-21T20:22:38.787Z,17.60
2023-05-21T20:25:08.676Z,17.50
2023-05-21T20:27:38.851Z,17.50
2023-05-21T20:30:08.277Z,17.40
2023-05-21T20:32:36.612Z,17.40
2023-05-21T20:35:05.067Z,17.30
2023-05-21T20:37:33.919Z,17.30
2023-05-21T20:40:01.521Z,17.20
2023-05-21T20:42:34.197Z,17.10
2023-05-21T20:45:03.093Z,17.10
2023-05-21T20:47:30.963Z,17.00
2023-05-21T20:50:02.891Z,17.00
2023-05-21T20:52:31.108Z,16.90
2023-05-21T20:55:00.422Z,16.90
2023-05-21T20:57:28.473Z,16.80
2023-05-21T20:59:56.256Z,16.80
2023-05-21T21:02:23.988Z,16.80
2023-05-21T21:04:51.734Z,16.70
2023-05-21T21:07:19.495Z,16.70
2023-05-21T21:09:48.457Z,16.70
2023-05-21T21:12:26.204Z,16.60
2023-05-21T21:14:54.661Z,16.60
2023-05-21T21:17:22.422Z,16.60
2023-05-21T21:19:50.018Z,16.60
2023-05-21T21:22:18.416Z,16.60
2023-05-21T21:24:46.123Z,16.60
2023-05-21T21:27:13.598Z,16.60
2023-05-21T21:29:43.319Z,16.60
2023-05-21T21:32:11.246Z,16.60
2023-05-21T21:34:38.901Z,16.60
2023-05-21T21:37:06.529Z,16.60
2023-05-21T21:39:34.063Z,16.60
2023-05-21T21:42:01.805Z,16.60
2023-05-21T21:44:29.346Z,16.60
2023-05-21T21:46:56.784Z,16.60
2023-05-21T21:49:24.286Z,16.60
2023-05-21T21:51:51.919Z,16.50
2023-05-21T21:54:19.460Z,16.50
2023-05-21T21:56:46.913Z,16.50
2023-05-21T21:59:15.141Z,16.50
2023-05-21T22:01:43.025Z,16.50
2023-05-21T22:04:11.341Z,16.40
2023-05-21T22:06:39.154Z,16.40
2023-05-21T22:09:07.467Z,16.40
2023-05-21T22:11:34.996Z,16.40
2023-05-21T22:14:02.764Z,16.30
2023-05-21T22:16:30.359Z,16.30
2023-05-21T22:18:58.829Z,16.30
2023-05-21T22:21:29.430Z,16.20
2023-05-21T22:23:57.024Z,16.20
2023-05-21T22:26:24.490Z,16.10
2023-05-21T22:28:52.213Z,16.10
2023-05-21T22:31:19.697Z,16.10
2023-05-21T22:33:47.244Z,16.10
2023-05-21T22:36:14.682Z,16.00
2023-05-21T22:38:43.790Z,15.90
2023-05-21T22:41:11.542Z,15.90
2023-05-21T22:43:39.133Z,15.90
2023-05-21T22:46:06.775Z,15.80
2023-05-21T22:48:37.137Z,15.80
2023-05-21T22:51:05.476Z,15.70
2023-05-21T22:53:33.510Z,15.70
2023-05-21T22:56:01.331Z,15.70
2023-05-21T22:58:29.023Z,15.60
2023-05-21T23:00:57.875Z,15.60
2023-05-21T23:03:25.664Z,15.50
2023-05-21T23:05:53.247Z,15.50
2023-05-21T23:08:21.055Z,15.50
2023-05-21T23:10:48.757Z,15.40
2023-05-21T23:13:16.343Z,15.40
2023-05-21T23:15:44.268Z,15.40
2023-05-21T23:18:12.585Z,15.30
2023-05-21T23:20:41.272Z,15.30
2023-05-21T23:23:09.819Z,15.30
2023-05-21T23:25:37.482Z,15.20
2023-05-21T23:28:05.242Z,15.20
2023-05-21T23:30:32.881Z,15.10
2023-05-21T23:33:01.141Z,15.10
2023-05-21T23:35:28.924Z,15.10
2023-05-21T23:37:56.414Z,15.10
2023-05-21T23:40:24.073Z,15.10
2023-05-21T23:42:51.934Z,15.10
2023-05-21T23:45:19.660Z,15.00
2023-05-21T23:47:47.426Z,15.00
2023-05-21T23:50:15.177Z,15.00
2023-05-21T23:52:42.993Z,15.00
2023-05-21T23:55:12.554Z,14.90
2023-05-21T23:57:40.931Z,14.90
